createdAt,value
2022-10-04T00:01:08.921Z,0.80
2022-10-04T00:03:41.427Z,0.80
2022-10-04T00:06:19.099Z,1.00
2022-10-04T00:08:51.837Z,0.90
2022-10-04T00:11:25.929Z,0.80
2022-10-04T00:13:57.313Z,1.00
2022-10-04T00:16:30.986Z,1.00
2022-10-04T00:24:22.872Z,0.90
2022-10-04T00:27:12.139Z,1.00
2022-10-04T00:29:41.916Z,1.00
2022-10-04T00:32:31.757Z,1.10
2022-10-04T00:35:00.823Z,0.90
2022-10-04T00:37:49.242Z,0.80
2022-10-04T00:40:20.469Z,0.90
2022-10-04T00:42:57.049Z,1.10
2022-10-04T00:45:30.778Z,0.80
2022-10-04T00:48:27.695Z,0.80
2022-10-04T00:51:04.161Z,1.10
2022-10-04T00:53:51.042Z,1.00
2022-10-04T00:56:27.361Z,1.00
2022-10-04T00:59:16.978Z,0.50
2022-10-04T01:01:47.498Z,0.80
2022-10-04T01:04:27.376Z,0.90
2022-10-04T01:06:57.636Z,1.20
2022-10-04T01:09:26.896Z,0.80
2022-10-04T01:12:02.569Z,1.00
2022-10-04T01:14:41.044Z,0.60
2022-10-04T01:17:09.962Z,0.90
2022-10-04T01:19:49.615Z,0.90
2022-10-04T01:22:36.772Z,1.20
2022-10-04T01:25:05.851Z,0.70
2022-10-04T01:27:37.271Z,0.90
2022-10-04T01:30:08.955Z,0.80
2022-10-04T01:32:39.156Z,0.60
2022-10-04T01:35:11.410Z,1.00
2022-10-04T01:37:40.152Z,0.80
2022-10-04T01:40:10.855Z,0.80
2022-10-04T01:42:44.460Z,1.30
2022-10-04T01:45:18.854Z,1.00
2022-10-04T01:47:52.872Z,0.90
2022-10-04T01:50:27.449Z,0.90
2022-10-04T01:53:01.121Z,0.80
2022-10-04T01:58:03.892Z,0.60
2022-10-04T02:00:33.079Z,0.80
2022-10-04T02:03:04.624Z,0.80
2022-10-04T02:05:38.396Z,0.80
2022-10-04T02:08:09.931Z,1.00
2022-10-04T02:10:43.254Z,0.80
2022-10-04T02:13:15.110Z,0.80
2022-10-04T02:15:44.524Z,0.80
2022-10-04T02:18:14.719Z,0.70
2022-10-04T02:20:44.047Z,0.70
2022-10-04T02:23:13.302Z,0.80
2022-10-04T02:25:41.329Z,0.60
2022-10-04T02:28:13.236Z,0.60
2022-10-04T02:31:04.495Z,1.20
2022-10-04T02:33:33.368Z,0.70
2022-10-04T02:36:02.967Z,0.60
2022-10-04T02:38:36.452Z,0.60
2022-10-04T02:41:11.950Z,0.90
2022-10-04T02:43:46.857Z,0.70
2022-10-04T02:46:21.844Z,0.80
2022-10-04T02:48:55.678Z,0.70
2022-10-04T02:54:11.107Z,1.10
2022-10-04T02:56:39.760Z,0.90
2022-10-04T02:59:15.849Z,0.60
2022-10-04T03:01:52.231Z,0.60
2022-10-04T03:04:23.872Z,0.60
2022-10-04T03:06:53.749Z,0.60
2022-10-04T03:09:29.630Z,0.70
2022-10-04T03:11:59.004Z,0.60
2022-10-04T03:14:29.271Z,0.70
2022-10-04T03:17:00.913Z,0.60
2022-10-04T03:19:31.395Z,0.70
2022-10-04T03:22:07.556Z,0.60
2022-10-04T03:24:39.467Z,0.50
2022-10-04T03:27:14.373Z,0.70
2022-10-04T03:29:42.918Z,0.60
2022-10-04T03:32:15.390Z,0.60
2022-10-04T03:34:52.107Z,0.80
2022-10-04T03:37:21.187Z,1.30
2022-10-04T03:39:51.936Z,0.80
2022-10-04T03:42:22.853Z,0.80
2022-10-04T03:44:53.919Z,1.00
2022-10-04T03:47:25.344Z,0.90
2022-10-04T03:49:55.879Z,0.90
2022-10-04T03:52:26.918Z,1.00
2022-10-04T03:55:00.137Z,0.90
2022-10-04T03:57:29.166Z,1.80
2022-10-04T03:59:58.816Z,2.00
2022-10-04T04:02:34.484Z,1.80
2022-10-04T04:05:09.956Z,2.20
2022-10-04T04:07:43.770Z,1.90
2022-10-04T04:10:21.901Z,2.30
2022-10-04T04:12:57.106Z,1.60
2022-10-04T04:15:29.827Z,1.70
2022-10-04T04:18:02.288Z,1.30
2022-10-04T04:20:34.418Z,1.80
2022-10-04T04:23:11.629Z,1.80
2022-10-04T04:25:42.557Z,1.90
2022-10-04T04:28:24.983Z,1.80
2022-10-04T04:30:57.498Z,1.70
2022-10-04T04:33:29.782Z,1.60
2022-10-04T04:36:05.054Z,1.40
2022-10-04T04:38:35.112Z,1.70
2022-10-04T04:41:10.539Z,2.00
2022-10-04T04:43:44.625Z,1.20
2022-10-04T04:46:27.194Z,1.30
2022-10-04T04:49:02.238Z,1.20
2022-10-04T04:51:32.706Z,1.40
2022-10-04T04:54:04.279Z,1.30
2022-10-04T04:56:35.114Z,1.20
2022-10-04T04:59:07.396Z,1.60
2022-10-04T05:01:37.307Z,1.20
2022-10-04T05:04:15.617Z,1.10
2022-10-04T05:06:45.146Z,1.40
2022-10-04T05:09:24.686Z,1.10
2022-10-04T05:11:57.206Z,1.00
2022-10-04T05:14:25.538Z,1.40
2022-10-04T05:16:55.351Z,1.10
2022-10-04T05:19:29.913Z,1.50
2022-10-04T05:22:00.998Z,1.30
2022-10-04T05:24:31.729Z,1.20
2022-10-04T05:27:02.588Z,1.30
2022-10-04T05:29:35.686Z,0.80
2022-10-04T05:32:23.762Z,0.70
2022-10-04T05:34:52.398Z,0.70
2022-10-04T05:37:29.783Z,0.80
2022-10-04T05:40:06.638Z,1.10
2022-10-04T05:42:40.849Z,1.10
2022-10-04T05:45:18.513Z,0.80
2022-10-04T05:47:50.028Z,1.00
2022-10-04T05:50:22.432Z,0.90
2022-10-04T05:52:52.286Z,1.10
2022-10-04T05:55:28.450Z,1.10
2022-10-04T05:58:19.500Z,1.00
2022-10-04T06:01:10.308Z,0.90
2022-10-04T06:04:08.745Z,0.90
2022-10-04T06:06:44.487Z,1.20
2022-10-04T06:09:39.389Z,0.80
2022-10-04T06:12:13.458Z,0.90
2022-10-04T06:15:10.322Z,0.60
2022-10-04T06:18:01.970Z,1.00
2022-10-04T06:21:05.455Z,0.80
2022-10-04T06:23:37.621Z,0.80
2022-10-04T06:26:10.717Z,0.80
2022-10-04T06:28:43.552Z,0.60
2022-10-04T06:31:56.506Z,0.70
2022-10-04T06:34:56.067Z,0.90
2022-10-04T06:37:43.323Z,0.80
2022-10-04T06:40:36.338Z,0.70
2022-10-04T06:43:22.633Z,0.70
2022-10-04T06:46:06.672Z,0.60
2022-10-04T06:49:02.722Z,0.50
2022-10-04T06:51:59.657Z,0.80
2022-10-04T06:54:42.851Z,1.20
2022-10-04T06:57:31.695Z,0.70
2022-10-04T07:00:16.245Z,0.70
2022-10-04T07:02:49.347Z,0.60
2022-10-04T07:05:29.798Z,0.70
2022-10-04T07:08:09.687Z,0.60
2022-10-04T07:10:47.310Z,0.60
2022-10-04T07:13:23.924Z,0.60
2022-10-04T07:15:57.601Z,0.80
2022-10-04T07:18:30.575Z,0.90
2022-10-04T07:21:08.282Z,0.70
2022-10-04T07:23:44.574Z,0.60
2022-10-04T07:26:24.732Z,0.70
2022-10-04T07:29:15.225Z,0.60
2022-10-04T07:31:45.435Z,0.80
2022-10-04T07:34:20.913Z,0.60
2022-10-04T07:36:53.441Z,0.70
2022-10-04T07:39:25.329Z,0.90
2022-10-04T07:41:56.742Z,0.90
2022-10-04T07:44:34.408Z,0.80
2022-10-04T07:47:09.124Z,1.10
2022-10-04T07:49:39.790Z,0.90
2022-10-04T07:52:34.759Z,0.70
2022-10-04T07:55:16.490Z,1.20
2022-10-04T07:57:55.210Z,0.80
2022-10-04T08:00:28.713Z,0.70
2022-10-04T08:03:19.610Z,0.70
2022-10-04T08:05:52.740Z,0.70
2022-10-04T08:08:43.579Z,0.80
2022-10-04T08:11:23.190Z,0.70
2022-10-04T08:13:57.964Z,0.90
2022-10-04T08:16:36.852Z,0.70
2022-10-04T08:19:25.313Z,1.10
2022-10-04T08:22:01.579Z,0.90
2022-10-04T08:24:35.951Z,0.80
2022-10-04T08:27:25.138Z,0.90
2022-10-04T08:30:05.890Z,0.90
2022-10-04T08:33:01.095Z,0.70
2022-10-04T08:35:39.673Z,0.70
2022-10-04T08:38:36.513Z,0.60
2022-10-04T08:41:36.144Z,0.80
2022-10-04T08:44:42.380Z,0.70
2022-10-04T08:47:49.804Z,0.70
2022-10-04T08:50:37.835Z,0.80
2022-10-04T08:53:34.668Z,0.80
2022-10-04T08:56:16.721Z,0.70
2022-10-04T08:59:18.469Z,0.70
2022-10-04T09:02:08.494Z,0.60
2022-10-04T09:05:03.699Z,0.90
2022-10-04T09:07:55.492Z,0.60
2022-10-04T09:10:55.612Z,0.90
2022-10-04T09:13:37.165Z,0.70
2022-10-04T09:16:17.607Z,0.80
2022-10-04T09:19:01.521Z,0.70
2022-10-04T09:21:49.776Z,0.70
2022-10-04T09:24:59.263Z,0.60
2022-10-04T09:28:01.359Z,0.50
2022-10-04T09:30:42.277Z,0.60
2022-10-04T09:33:37.737Z,0.70
2022-10-04T09:36:33.666Z,0.60
2022-10-04T09:39:35.494Z,0.90
2022-10-04T09:42:28.462Z,0.60
2022-10-04T09:45:28.197Z,0.50
2022-10-04T09:48:16.885Z,0.80
2022-10-04T09:51:20.064Z,0.70
2022-10-04T09:54:19.835Z,0.80
2022-10-04T09:57:06.198Z,0.70
2022-10-04T10:00:02.255Z,0.90
2022-10-04T10:02:55.821Z,0.60
2022-10-04T10:05:31.174Z,0.60
2022-10-04T10:08:13.915Z,0.70
2022-10-04T10:11:09.633Z,0.80
2022-10-04T10:14:10.756Z,0.60
2022-10-04T10:16:52.794Z,0.60
2022-10-04T10:19:52.412Z,0.80
2022-10-04T10:22:37.883Z,0.60
2022-10-04T10:25:21.454Z,0.70
2022-10-04T10:28:18.752Z,0.60
2022-10-04T10:31:05.616Z,0.50
2022-10-04T10:33:46.531Z,0.70
2022-10-04T10:36:28.699Z,0.60
2022-10-04T10:39:25.449Z,0.50
2022-10-04T10:42:11.624Z,1.00
2022-10-04T10:45:19.208Z,0.90
2022-10-04T10:47:55.521Z,0.90
2022-10-04T10:50:58.270Z,0.80
2022-10-04T10:54:04.568Z,0.90
2022-10-04T10:56:52.925Z,0.70
2022-10-04T11:00:05.006Z,0.60
2022-10-04T11:03:13.097Z,0.80
2022-10-04T11:06:06.236Z,0.90
2022-10-04T11:09:21.898Z,0.60
2022-10-04T11:12:23.614Z,0.90
2022-10-04T11:15:32.691Z,1.00
2022-10-04T11:18:40.347Z,0.90
2022-10-04T11:21:36.599Z,0.60
2022-10-04T11:24:34.561Z,1.10
2022-10-04T11:27:16.655Z,0.70
2022-10-04T11:30:03.456Z,1.30
2022-10-04T11:33:09.088Z,0.70
2022-10-04T11:36:02.630Z,0.90
2022-10-04T11:38:50.745Z,0.80
2022-10-04T11:41:28.174Z,1.20
2022-10-04T11:44:21.433Z,0.90
2022-10-04T11:46:56.813Z,1.00
2022-10-04T11:49:56.055Z,0.80
2022-10-04T11:52:54.014Z,0.70
2022-10-04T11:55:46.938Z,0.90
2022-10-04T11:58:24.636Z,0.70
2022-10-04T12:01:18.451Z,0.70
2022-10-04T12:04:15.587Z,0.90
2022-10-04T12:06:57.247Z,0.90
2022-10-04T12:09:33.820Z,0.80
2022-10-04T12:12:38.409Z,1.10
2022-10-04T12:15:27.485Z,0.90
2022-10-04T12:18:32.411Z,1.10
2022-10-04T12:21:21.750Z,0.80
2022-10-04T12:24:15.298Z,1.00
2022-10-04T12:27:02.979Z,0.80
2022-10-04T12:30:04.287Z,0.60
2022-10-04T12:32:38.717Z,1.10
2022-10-04T12:35:24.903Z,1.00
2022-10-04T12:38:27.584Z,1.10
2022-10-04T12:41:03.725Z,0.70
2022-10-04T12:43:44.448Z,1.00
2022-10-04T12:46:23.781Z,0.70
2022-10-04T12:49:12.761Z,0.70
2022-10-04T12:51:53.515Z,0.60
2022-10-04T12:54:43.915Z,0.90
2022-10-04T12:57:36.699Z,0.60
2022-10-04T13:00:14.734Z,0.70
2022-10-04T13:03:21.365Z,0.80
2022-10-04T13:06:02.288Z,0.50
2022-10-04T13:08:48.227Z,0.50
2022-10-04T13:11:43.685Z,0.70
2022-10-04T13:14:49.527Z,0.70
2022-10-04T13:17:35.821Z,0.80
2022-10-04T13:20:26.270Z,0.80
2022-10-04T13:22:59.479Z,0.70
2022-10-04T13:25:43.425Z,0.70
2022-10-04T13:28:22.723Z,0.50
2022-10-04T13:31:00.536Z,0.90
2022-10-04T13:33:40.238Z,0.50
2022-10-04T13:36:16.228Z,0.70
2022-10-04T13:39:10.235Z,0.60
2022-10-04T13:41:55.208Z,0.60
2022-10-04T13:44:43.489Z,0.60
2022-10-04T13:47:38.383Z,0.70
2022-10-04T13:50:26.768Z,1.10
2022-10-04T13:53:22.676Z,1.90
2022-10-04T13:56:19.433Z,1.60
2022-10-04T13:58:51.409Z,1.70
2022-10-04T14:01:47.340Z,1.20
2022-10-04T14:04:37.063Z,1.00
2022-10-04T14:07:26.727Z,1.30
2022-10-04T14:10:10.730Z,1.20
2022-10-04T14:12:59.200Z,1.10
2022-10-04T14:16:01.179Z,1.10
2022-10-04T14:19:20.267Z,1.70
2022-10-04T14:22:28.086Z,1.10
2022-10-04T14:25:35.153Z,0.90
2022-10-04T14:28:49.893Z,1.40
2022-10-04T14:31:36.783Z,0.80
2022-10-04T14:34:33.941Z,1.20
2022-10-04T14:37:37.047Z,0.90
2022-10-04T14:40:27.216Z,1.00
2022-10-04T14:43:35.265Z,0.80
2022-10-04T14:46:21.958Z,0.80
2022-10-04T14:49:08.622Z,1.00
2022-10-04T14:52:03.734Z,0.90
2022-10-04T14:54:42.404Z,1.00
2022-10-04T14:57:18.734Z,0.70
2022-10-04T15:00:18.684Z,0.70
2022-10-04T15:03:10.798Z,1.30
2022-10-04T15:05:45.295Z,0.80
2022-10-04T15:08:38.686Z,1.30
2022-10-04T15:11:12.294Z,1.20
2022-10-04T15:13:54.887Z,0.90
2022-10-04T15:16:41.494Z,0.60
2022-10-04T15:19:23.914Z,0.70
2022-10-04T15:22:03.406Z,0.60
2022-10-04T15:24:43.890Z,0.60
2022-10-04T15:27:46.019Z,0.60
2022-10-04T15:30:30.228Z,0.60
2022-10-04T15:33:24.811Z,1.10
2022-10-04T15:36:14.141Z,0.60
2022-10-04T15:38:54.611Z,1.10
2022-10-04T15:41:33.934Z,1.10
2022-10-04T15:44:39.473Z,1.10
2022-10-04T15:47:21.497Z,0.80
2022-10-04T15:50:03.586Z,0.60
2022-10-04T15:53:02.746Z,0.80
2022-10-04T15:56:04.182Z,1.00
2022-10-04T15:59:04.127Z,0.90
2022-10-04T16:01:54.203Z,0.60
2022-10-04T16:04:37.670Z,0.80
2022-10-04T16:07:31.788Z,0.80
2022-10-04T16:10:15.603Z,0.80
2022-10-04T16:13:14.819Z,0.70
2022-10-04T16:15:49.079Z,0.80
2022-10-04T16:18:38.029Z,0.80
2022-10-04T16:21:14.942Z,1.20
2022-10-04T16:23:44.642Z,2.10
2022-10-04T16:26:34.191Z,1.60
2022-10-04T16:29:16.114Z,1.10
2022-10-04T16:31:53.093Z,1.80
2022-10-04T16:34:41.023Z,1.90
2022-10-04T16:37:20.362Z,1.50
2022-10-04T16:39:59.787Z,1.70
2022-10-04T16:42:38.612Z,2.10
2022-10-04T16:45:38.586Z,2.30
2022-10-04T16:48:23.360Z,2.20
2022-10-04T16:51:15.051Z,3.00
2022-10-04T16:53:53.100Z,3.40
2022-10-04T16:56:23.036Z,3.10
2022-10-04T16:58:55.863Z,3.30
2022-10-04T17:01:55.597Z,3.00
2022-10-04T17:04:42.767Z,3.30
2022-10-04T17:07:23.247Z,3.30
2022-10-04T17:10:02.304Z,3.20
2022-10-04T17:12:45.012Z,3.70
2022-10-04T17:15:34.017Z,3.50
2022-10-04T17:18:18.815Z,3.10
2022-10-04T17:20:56.572Z,3.40
2022-10-04T17:23:50.703Z,3.40
2022-10-04T17:26:29.209Z,4.10
2022-10-04T17:29:03.528Z,4.30
2022-10-04T17:31:46.015Z,3.90
2022-10-04T17:34:29.619Z,3.50
2022-10-04T17:37:05.739Z,3.90
2022-10-04T17:39:44.292Z,3.80
2022-10-04T17:42:34.302Z,3.70
2022-10-04T17:45:20.977Z,3.50
2022-10-04T17:48:18.473Z,3.40
2022-10-04T17:51:13.665Z,7.20
2022-10-04T17:54:06.434Z,14.40
2022-10-04T17:56:41.820Z,21.40
2022-10-04T17:59:15.287Z,12.70
2022-10-04T18:01:48.096Z,21.20
2022-10-04T18:04:21.293Z,20.00
2022-10-04T18:06:56.556Z,11.00
2022-10-04T18:09:32.329Z,12.60
2022-10-04T18:12:04.088Z,17.60
2022-10-04T18:15:06.963Z,16.80
2022-10-04T18:17:41.598Z,16.50
2022-10-04T18:20:27.992Z,14.50
2022-10-04T18:23:01.548Z,13.70
2022-10-04T18:25:33.120Z,13.60
2022-10-04T18:28:14.428Z,12.60
2022-10-04T18:30:59.543Z,13.30
2022-10-04T18:33:45.977Z,12.80
2022-10-04T18:36:17.538Z,13.40
2022-10-04T18:38:59.996Z,13.80
2022-10-04T18:41:48.855Z,11.90
2022-10-04T18:44:20.246Z,11.70
2022-10-04T18:46:54.907Z,12.90
2022-10-04T18:49:27.208Z,10.50
2022-10-04T18:52:25.581Z,11.00
2022-10-04T18:55:04.501Z,11.30
2022-10-04T18:57:57.958Z,9.40
2022-10-04T19:00:46.221Z,10.00
2022-10-04T19:03:26.488Z,9.30
2022-10-04T19:06:03.197Z,9.70
2022-10-04T19:08:40.240Z,9.30
2022-10-04T19:11:12.968Z,9.50
2022-10-04T19:13:48.110Z,9.20
2022-10-04T19:16:30.976Z,8.30
2022-10-04T19:19:08.886Z,8.50
2022-10-04T19:21:47.213Z,9.80
2022-10-04T19:24:33.785Z,8.80
2022-10-04T19:27:04.740Z,8.20
2022-10-04T19:29:43.951Z,8.70
2022-10-04T19:32:20.211Z,8.10
2022-10-04T19:34:54.780Z,8.70
2022-10-04T19:37:30.325Z,7.20
2022-10-04T19:40:09.435Z,7.40
2022-10-04T19:42:48.697Z,7.70
2022-10-04T19:45:32.673Z,7.60
2022-10-04T19:48:08.175Z,7.00
2022-10-04T19:50:42.574Z,7.00
2022-10-04T19:53:19.360Z,6.80
2022-10-04T19:55:55.251Z,7.10
2022-10-04T19:58:33.312Z,6.50
2022-10-04T20:01:01.518Z,6.70
2022-10-04T20:03:29.709Z,6.70
2022-10-04T20:05:57.890Z,6.60
2022-10-04T20:09:02.798Z,6.80
2022-10-04T20:11:48.954Z,6.00
2022-10-04T20:14:51.941Z,6.00
2022-10-04T20:17:40.312Z,6.40
2022-10-04T20:20:08.774Z,6.70
2022-10-04T20:22:57.041Z,6.90
2022-10-04T20:26:03.540Z,5.90
2022-10-04T20:28:44.629Z,6.10
2022-10-04T20:31:53.362Z,6.40
2022-10-04T20:34:33.068Z,6.50
2022-10-04T20:37:01.759Z,6.60
2022-10-04T20:39:56.880Z,6.30
2022-10-04T20:42:38.502Z,6.10
2022-10-04T20:45:25.019Z,5.90
2022-10-04T20:47:56.974Z,5.40
2022-10-04T20:50:42.644Z,5.90
2022-10-04T20:53:21.035Z,5.50
2022-10-04T20:55:51.467Z,5.60
2022-10-04T20:58:40.585Z,5.40
2022-10-04T21:01:41.705Z,6.00
2022-10-04T21:04:25.789Z,5.90
2022-10-04T21:06:55.126Z,5.60
2022-10-04T21:09:23.938Z,5.60
2022-10-04T21:11:54.013Z,5.00
2022-10-04T21:14:26.238Z,5.50
2022-10-04T21:16:59.950Z,5.00
2022-10-04T21:19:43.081Z,5.20
2022-10-04T21:22:31.006Z,6.50
2022-10-04T21:25:00.617Z,5.70
2022-10-04T21:27:30.959Z,5.20
2022-10-04T21:30:00.254Z,6.40
2022-10-04T21:32:33.094Z,5.00
2022-10-04T21:35:01.214Z,5.30
2022-10-04T21:37:29.601Z,5.10
2022-10-04T21:39:57.664Z,5.60
2022-10-04T21:42:26.428Z,4.70
2022-10-04T21:44:54.566Z,5.00
2022-10-04T21:47:22.738Z,4.30
2022-10-04T21:49:51.685Z,5.20
2022-10-04T21:52:19.905Z,4.70
2022-10-04T21:54:47.869Z,4.10
2022-10-04T21:57:16.060Z,4.90
2022-10-04T21:59:44.250Z,4.40
2022-10-04T22:02:12.749Z,5.40
2022-10-04T22:04:41.338Z,4.00
2022-10-04T22:07:10.055Z,4.20
2022-10-04T22:09:38.616Z,4.40
2022-10-04T22:12:06.834Z,5.10
2022-10-04T22:14:34.806Z,4.20
2022-10-04T22:17:03.009Z,4.50
2022-10-04T22:19:31.133Z,4.30
2022-10-04T22:21:59.195Z,4.30
2022-10-04T22:24:27.274Z,5.00
2022-10-04T22:26:56.541Z,4.70
2022-10-04T22:29:26.383Z,4.10
2022-10-04T22:31:54.937Z,4.20
2022-10-04T22:34:23.358Z,3.70
2022-10-04T22:36:52.320Z,4.30
2022-10-04T22:39:21.794Z,4.00
2022-10-04T22:41:55.362Z,3.90
2022-10-04T22:44:25.770Z,4.10
2022-10-04T22:46:55.566Z,4.00
2022-10-04T22:49:25.960Z,3.60
2022-10-04T22:51:56.235Z,3.90
2022-10-04T22:54:26.298Z,4.20
2022-10-04T22:56:56.458Z,4.40
2022-10-04T22:59:38.110Z,4.10
2022-10-04T23:02:12.338Z,3.50
2022-10-04T23:04:42.506Z,3.90
2022-10-04T23:07:10.578Z,3.50
2022-10-04T23:09:38.637Z,4.00
2022-10-04T23:12:09.218Z,4.00
2022-10-04T23:14:38.059Z,3.30
2022-10-04T23:17:20.943Z,3.50
2022-10-04T23:19:51.841Z,3.20
2022-10-04T23:22:25.989Z,3.50
2022-10-04T23:24:55.312Z,3.60
2022-10-04T23:27:23.659Z,3.00
2022-10-04T23:30:00.606Z,3.10
2022-10-04T23:32:31.324Z,3.50
2022-10-04T23:35:00.599Z,3.60
2022-10-04T23:37:32.098Z,3.50
2022-10-04T23:40:00.550Z,3.20
2022-10-04T23:42:31.702Z,3.20
2022-10-04T23:45:01.710Z,3.10
2022-10-04T23:47:33.742Z,3.60
2022-10-04T23:50:05.072Z,3.40
2022-10-04T23:52:36.945Z,3.20
2022-10-04T23:55:16.356Z,3.30
2022-10-04T23:57:44.824Z,3.30
